createdAt,value
2022-12-23T00:01:55.179Z,1.35
2022-12-23T00:04:21.664Z,1.27
2022-12-23T00:06:48.097Z,0.90
2022-12-23T00:09:14.700Z,0.93
2022-12-23T00:12:01.067Z,1.13
2022-12-23T00:14:45.949Z,1.30
2022-12-23T00:17:22.275Z,1.48
2022-12-23T00:19:49.531Z,1.48
2022-12-23T00:22:15.896Z,1.08
2022-12-23T00:24:45.383Z,1.23
2022-12-23T00:27:14.110Z,1.02
2022-12-23T00:29:42.701Z,1.13
2022-12-23T00:32:09.131Z,1.33
2022-12-23T00:34:35.809Z,0.88
2022-12-23T00:37:02.148Z,1.35
2022-12-23T00:39:54.649Z,1.60
2022-12-23T00:42:40.037Z,1.30
2022-12-23T00:45:15.735Z,0.95
2022-12-23T00:48:03.266Z,1.30
2022-12-23T00:50:36.671Z,1.58
2022-12-23T00:53:03.567Z,2.00
2022-12-23T00:55:30.542Z,1.20
2022-12-23T00:57:57.006Z,1.55
2022-12-23T01:00:43.666Z,1.63
2022-12-23T01:03:33.492Z,1.13
2022-12-23T01:06:01.323Z,0.90
2022-12-23T01:08:29.177Z,0.90
2022-12-23T01:10:55.606Z,0.90
2022-12-23T01:13:22.387Z,0.85
2022-12-23T01:15:51.060Z,1.00
2022-12-23T01:18:19.674Z,0.90
2022-12-23T01:20:46.023Z,0.80
2022-12-23T01:23:12.443Z,0.90
2022-12-23T01:25:38.899Z,0.75
2022-12-23T01:28:05.609Z,0.82
2022-12-23T01:30:32.045Z,1.02
2022-12-23T01:32:58.547Z,0.70
2022-12-23T01:35:24.993Z,0.77
2022-12-23T01:37:51.435Z,1.13
2022-12-23T01:40:17.851Z,0.77
2022-12-23T01:42:47.578Z,0.85
2022-12-23T01:45:30.415Z,0.93
2022-12-23T01:48:00.657Z,0.75
2022-12-23T01:50:41.862Z,1.23
2022-12-23T01:53:40.652Z,1.02
2022-12-23T01:56:15.331Z,1.30
2022-12-23T01:58:48.178Z,1.58
2022-12-23T02:01:33.715Z,1.30
2022-12-23T02:04:07.931Z,1.50
2022-12-23T02:06:56.452Z,1.67
2022-12-23T02:09:47.616Z,1.38
2022-12-23T02:12:41.799Z,1.65
2022-12-23T02:15:59.244Z,1.40
2022-12-23T02:19:00.565Z,1.38
2022-12-23T02:22:19.464Z,2.03
2022-12-23T02:25:04.344Z,1.33
2022-12-23T02:27:34.385Z,1.70
2022-12-23T02:30:22.686Z,1.52
2022-12-23T02:33:35.357Z,1.50
2022-12-23T02:36:33.549Z,1.67
2022-12-23T02:39:09.027Z,2.00
2022-12-23T02:41:54.749Z,1.50
2022-12-23T02:44:37.753Z,1.42
2022-12-23T02:47:10.638Z,1.77
2022-12-23T02:49:42.308Z,1.75
2022-12-23T02:52:16.122Z,1.73
2022-12-23T02:54:51.151Z,1.20
2022-12-23T02:57:23.528Z,1.35
2022-12-23T03:02:19.279Z,1.92
2022-12-23T03:04:45.829Z,1.42
2022-12-23T03:07:39.057Z,1.52
2022-12-23T03:10:13.248Z,1.20
2022-12-23T03:13:07.668Z,1.75
2022-12-23T03:15:43.659Z,1.02
2022-12-23T03:18:32.611Z,1.00
2022-12-23T03:21:34.034Z,1.20
2022-12-23T03:24:08.435Z,1.10
2022-12-23T03:26:42.166Z,1.45
2022-12-23T03:29:41.522Z,1.00
2022-12-23T03:32:12.082Z,0.95
2022-12-23T03:34:43.036Z,1.08
2022-12-23T03:37:13.356Z,1.20
2022-12-23T03:39:52.605Z,1.17
2022-12-23T03:42:47.810Z,0.90
2022-12-23T03:45:39.898Z,1.15
2022-12-23T03:48:16.735Z,0.60
2022-12-23T03:50:45.212Z,1.05
2022-12-23T03:53:36.804Z,0.80
2022-12-23T03:56:09.974Z,0.60
2022-12-23T03:58:58.663Z,0.75
2022-12-23T04:01:43.171Z,0.50
2022-12-23T04:04:26.443Z,0.85
2022-12-23T04:07:00.574Z,0.75
2022-12-23T04:09:31.844Z,0.57
2022-12-23T04:11:58.905Z,0.40
2022-12-23T04:14:27.626Z,0.73
2022-12-23T04:16:58.381Z,0.60
2022-12-23T04:19:25.405Z,0.45
2022-12-23T04:21:54.026Z,0.50
2022-12-23T04:24:20.383Z,0.55
2022-12-23T04:26:46.686Z,0.40
2022-12-23T04:29:13.017Z,0.70
2022-12-23T04:31:39.541Z,0.30
2022-12-23T04:34:06.019Z,0.30
2022-12-23T04:36:34.781Z,0.50
2022-12-23T04:39:01.188Z,0.25
2022-12-23T04:41:27.576Z,0.20
2022-12-23T04:43:56.250Z,0.20
2022-12-23T04:46:22.683Z,0.38
2022-12-23T04:48:49.102Z,0.32
2022-12-23T04:51:15.553Z,0.30
2022-12-23T04:53:44.547Z,0.20
2022-12-23T04:56:11.127Z,0.43
2022-12-23T04:58:37.569Z,0.30
2022-12-23T05:01:09.379Z,0.30
2022-12-23T05:03:36.584Z,0.80
2022-12-23T05:06:03.623Z,0.50
2022-12-23T05:08:30.557Z,0.38
2022-12-23T05:10:57.435Z,0.22
2022-12-23T05:13:24.356Z,0.38
2022-12-23T05:15:52.649Z,0.40
2022-12-23T05:18:22.330Z,0.20
2022-12-23T05:20:49.598Z,0.50
2022-12-23T05:23:18.562Z,0.52
2022-12-23T05:25:51.674Z,0.32
2022-12-23T05:28:18.453Z,0.40
2022-12-23T05:30:45.035Z,0.40
2022-12-23T05:33:11.555Z,0.50
2022-12-23T05:35:37.935Z,0.50
2022-12-23T05:38:04.482Z,0.40
2022-12-23T05:40:34.021Z,0.30
2022-12-23T05:43:00.576Z,0.40
2022-12-23T05:45:27.036Z,0.50
2022-12-23T05:47:53.533Z,0.30
2022-12-23T05:50:20.031Z,0.45
2022-12-23T05:52:46.501Z,0.38
2022-12-23T05:55:12.872Z,0.30
2022-12-23T05:57:39.198Z,0.20
2022-12-23T06:00:06.630Z,0.60
2022-12-23T06:02:33.164Z,0.68
2022-12-23T06:04:59.768Z,0.30
2022-12-23T06:07:26.198Z,0.32
2022-12-23T06:09:52.537Z,0.40
2022-12-23T06:12:18.888Z,0.43
2022-12-23T06:14:45.306Z,0.60
2022-12-23T06:17:11.672Z,0.43
2022-12-23T06:19:38.091Z,0.30
2022-12-23T06:22:04.623Z,0.60
2022-12-23T06:24:31.053Z,0.40
2022-12-23T06:26:57.745Z,0.50
2022-12-23T06:29:24.863Z,0.38
2022-12-23T06:31:51.332Z,0.65
2022-12-23T06:34:19.978Z,0.95
2022-12-23T06:36:46.587Z,0.82
2022-12-23T06:39:13.097Z,1.00
2022-12-23T06:41:39.470Z,1.02
2022-12-23T06:44:09.412Z,1.27
2022-12-23T06:46:35.844Z,1.58
2022-12-23T06:49:06.119Z,1.90
2022-12-23T06:51:35.671Z,1.35
2022-12-23T06:54:02.305Z,1.52
2022-12-23T06:56:28.690Z,1.52
2022-12-23T06:58:55.093Z,1.00
2022-12-23T07:01:23.939Z,0.70
2022-12-23T07:03:50.631Z,1.13
2022-12-23T07:06:17.733Z,1.67
2022-12-23T07:08:44.116Z,1.60
2022-12-23T07:11:12.979Z,1.42
2022-12-23T07:13:39.351Z,1.45
2022-12-23T07:16:08.127Z,1.20
2022-12-23T07:18:35.029Z,2.25
2022-12-23T07:21:02.571Z,2.03
2022-12-23T07:23:31.963Z,2.38
2022-12-23T07:25:58.430Z,1.65
2022-12-23T07:28:27.358Z,2.40
2022-12-23T07:30:53.856Z,1.70
2022-12-23T07:33:20.177Z,1.35
2022-12-23T07:35:46.645Z,1.35
2022-12-23T07:38:13.047Z,1.00
2022-12-23T07:40:39.407Z,1.00
2022-12-23T07:43:05.961Z,1.58
2022-12-23T07:45:32.369Z,1.52
2022-12-23T07:48:01.039Z,1.20
2022-12-23T07:50:27.692Z,1.40
2022-12-23T07:52:54.703Z,1.77
2022-12-23T07:55:21.525Z,1.30
2022-12-23T07:57:53.707Z,1.63
2022-12-23T08:00:20.735Z,1.40
2022-12-23T08:02:48.238Z,1.17
2022-12-23T08:05:15.043Z,1.67
2022-12-23T08:07:42.114Z,1.15
2022-12-23T08:10:09.838Z,1.20
2022-12-23T08:12:38.843Z,1.10
2022-12-23T08:15:05.979Z,1.55
2022-12-23T08:17:32.499Z,2.10
2022-12-23T08:19:58.967Z,1.38
2022-12-23T08:22:25.475Z,1.77
2022-12-23T08:24:52.592Z,1.33
2022-12-23T08:27:19.219Z,1.10
2022-12-23T08:29:45.596Z,1.48
2022-12-23T08:32:11.960Z,1.50
2022-12-23T08:34:38.497Z,1.58
2022-12-23T08:37:04.983Z,1.20
2022-12-23T08:39:31.506Z,1.30
2022-12-23T08:41:58.096Z,1.50
2022-12-23T08:44:27.934Z,1.25
2022-12-23T08:46:55.246Z,1.10
2022-12-23T08:49:21.757Z,0.80
2022-12-23T08:51:48.142Z,0.93
2022-12-23T08:54:14.581Z,0.80
2022-12-23T08:56:41.933Z,1.35
2022-12-23T08:59:19.102Z,0.75
2022-12-23T09:01:48.979Z,1.90
2022-12-23T09:04:15.539Z,1.73
2022-12-23T09:06:42.994Z,1.50
2022-12-23T09:09:11.844Z,1.60
2022-12-23T09:11:38.357Z,1.30
2022-12-23T09:14:06.005Z,1.23
2022-12-23T09:16:32.580Z,1.60
2022-12-23T09:19:01.725Z,0.98
2022-12-23T09:21:28.210Z,1.20
2022-12-23T09:23:57.243Z,1.02
2022-12-23T09:26:26.720Z,1.92
2022-12-23T09:28:56.625Z,1.02
2022-12-23T09:31:23.922Z,0.60
2022-12-23T09:33:52.835Z,0.98
2022-12-23T09:36:20.630Z,0.80
2022-12-23T09:38:47.351Z,0.70
2022-12-23T09:41:35.399Z,0.90
2022-12-23T09:44:20.168Z,1.15
2022-12-23T09:46:56.577Z,1.13
2022-12-23T09:49:24.150Z,1.30
2022-12-23T09:51:54.070Z,1.27
2022-12-23T09:54:26.211Z,1.50
2022-12-23T09:57:00.323Z,1.52
2022-12-23T09:59:59.740Z,1.23
2022-12-23T10:02:29.121Z,1.50
2022-12-23T10:05:17.468Z,1.77
2022-12-23T10:07:45.285Z,1.80
2022-12-23T10:10:20.827Z,1.65
2022-12-23T10:12:49.970Z,1.73
2022-12-23T10:15:36.971Z,1.75
2022-12-23T10:18:13.587Z,1.85
2022-12-23T10:20:47.359Z,1.98
2022-12-23T10:23:17.965Z,2.20
2022-12-23T10:25:51.888Z,2.10
2022-12-23T10:28:18.929Z,2.92
2022-12-23T10:31:39.238Z,1.85
2022-12-23T10:34:27.124Z,1.67
2022-12-23T10:37:00.806Z,1.45
2022-12-23T10:39:45.219Z,2.05
2022-12-23T10:42:29.073Z,1.58
2022-12-23T10:45:31.820Z,1.40
2022-12-23T10:50:53.427Z,2.40
2022-12-23T10:53:30.576Z,2.00
2022-12-23T10:55:58.202Z,1.77
2022-12-23T10:58:26.566Z,1.50
2022-12-23T11:01:05.772Z,1.80
2022-12-23T11:03:46.927Z,1.73
2022-12-23T11:06:16.616Z,1.85
2022-12-23T11:08:43.220Z,1.10
2022-12-23T11:11:09.583Z,1.17
2022-12-23T11:13:43.563Z,1.50
2022-12-23T11:16:26.529Z,1.30
2022-12-23T11:18:55.871Z,0.68
2022-12-23T11:21:24.654Z,1.02
2022-12-23T11:24:15.325Z,1.50
2022-12-23T11:26:45.346Z,1.88
2022-12-23T11:29:21.089Z,1.60
2022-12-23T11:31:47.843Z,2.10
2022-12-23T11:34:21.053Z,1.83
2022-12-23T11:37:03.629Z,1.60
2022-12-23T11:39:36.714Z,1.42
2022-12-23T11:42:28.342Z,1.30
2022-12-23T11:44:59.470Z,1.43
2022-12-23T11:47:37.337Z,1.50
2022-12-23T11:50:28.375Z,1.17
2022-12-23T11:53:09.733Z,1.35
2022-12-23T11:55:46.393Z,2.05
2022-12-23T11:58:22.544Z,1.40
2022-12-23T12:00:56.355Z,1.85
2022-12-23T12:03:27.712Z,1.40
2022-12-23T12:06:05.649Z,1.73
2022-12-23T12:08:41.911Z,1.83
2022-12-23T12:11:18.362Z,1.27
2022-12-23T12:13:49.132Z,1.88
2022-12-23T12:16:29.091Z,2.17
2022-12-23T12:19:00.658Z,2.78
2022-12-23T12:21:33.198Z,2.40
2022-12-23T12:24:18.928Z,2.85
2022-12-23T12:26:52.969Z,1.80
2022-12-23T12:29:35.077Z,1.52
2022-12-23T12:32:02.041Z,1.60
2022-12-23T12:34:36.442Z,1.50
2022-12-23T12:37:24.880Z,2.13
2022-12-23T12:40:00.699Z,2.53
2022-12-23T12:42:53.169Z,2.53
2022-12-23T12:45:32.070Z,2.22
2022-12-23T12:48:22.376Z,1.70
2022-12-23T12:50:59.431Z,1.70
2022-12-23T12:53:28.196Z,1.75
2022-12-23T12:56:14.938Z,1.98
2022-12-23T12:58:47.016Z,1.52
2022-12-23T13:01:37.115Z,1.33
2022-12-23T13:04:47.874Z,1.80
2022-12-23T13:07:48.215Z,1.75
2022-12-23T13:10:39.126Z,1.58
2022-12-23T13:13:30.370Z,1.60
2022-12-23T13:16:25.255Z,1.35
2022-12-23T13:18:51.702Z,1.35
2022-12-23T13:21:24.094Z,1.50
2022-12-23T13:24:32.619Z,1.00
2022-12-23T13:27:13.956Z,1.40
2022-12-23T13:29:58.215Z,1.20
2022-12-23T13:32:31.244Z,1.08
2022-12-23T13:35:14.246Z,0.90
2022-12-23T13:38:10.198Z,0.93
2022-12-23T13:40:58.239Z,0.75
2022-12-23T13:43:40.311Z,0.60
2022-12-23T13:46:30.241Z,0.70
2022-12-23T13:49:05.966Z,0.75
2022-12-23T13:52:13.388Z,0.80
2022-12-23T13:55:10.194Z,0.73
2022-12-23T13:58:01.096Z,0.90
2022-12-23T14:00:32.928Z,0.90
2022-12-23T14:03:02.488Z,1.10
2022-12-23T14:05:54.164Z,1.00
2022-12-23T14:08:28.853Z,1.03
2022-12-23T14:10:57.487Z,1.17
2022-12-23T14:13:27.430Z,1.95
2022-12-23T14:16:18.478Z,2.50
2022-12-23T14:19:06.936Z,1.73
2022-12-23T14:22:00.853Z,7.05
2022-12-23T14:24:45.753Z,2.83
2022-12-23T14:27:33.599Z,2.10
2022-12-23T14:30:12.984Z,1.83
2022-12-23T14:32:52.202Z,1.30
2022-12-23T14:35:20.977Z,1.45
2022-12-23T14:38:16.924Z,1.15
2022-12-23T14:40:43.514Z,1.50
2022-12-23T14:43:22.339Z,1.73
2022-12-23T14:45:50.470Z,1.05
2022-12-23T14:48:36.050Z,1.10
2022-12-23T14:51:03.589Z,1.17
2022-12-23T14:53:33.282Z,1.50
2022-12-23T14:56:15.001Z,1.30
2022-12-23T14:59:10.034Z,1.80
2022-12-23T15:01:42.374Z,1.48
2022-12-23T15:04:20.901Z,1.50
2022-12-23T15:07:09.053Z,1.75
2022-12-23T15:09:40.220Z,1.92
2022-12-23T15:12:14.911Z,1.20
2022-12-23T15:14:50.842Z,1.73
2022-12-23T15:17:25.878Z,1.98
2022-12-23T15:19:53.856Z,1.88
2022-12-23T15:22:28.301Z,2.28
2022-12-23T15:24:58.726Z,2.17
2022-12-23T15:27:28.500Z,1.08
2022-12-23T15:29:58.815Z,1.00
2022-12-23T15:32:26.812Z,1.35
2022-12-23T15:35:03.257Z,0.90
2022-12-23T15:37:31.464Z,1.48
2022-12-23T15:40:09.943Z,1.65
2022-12-23T15:42:38.627Z,1.98
2022-12-23T15:45:30.987Z,1.30
2022-12-23T15:47:57.552Z,1.58
2022-12-23T15:50:24.449Z,2.20
2022-12-23T15:52:56.064Z,1.75
2022-12-23T15:55:30.188Z,2.05
2022-12-23T15:57:57.057Z,1.10
2022-12-23T16:00:39.867Z,1.45
2022-12-23T16:03:21.689Z,1.08
2022-12-23T16:05:50.838Z,1.50
2022-12-23T16:08:30.187Z,0.98
2022-12-23T16:11:14.153Z,1.20
2022-12-23T16:13:58.057Z,1.23
2022-12-23T16:16:40.413Z,1.20
2022-12-23T16:19:42.108Z,1.43
2022-12-23T16:22:20.517Z,1.58
2022-12-23T16:24:52.228Z,1.10
2022-12-23T16:27:25.198Z,1.10
2022-12-23T16:29:51.572Z,1.60
2022-12-23T16:32:19.464Z,1.75
2022-12-23T16:34:51.276Z,2.45
2022-12-23T16:37:17.730Z,3.53
2022-12-23T16:39:44.088Z,5.32
2022-12-23T16:42:15.400Z,7.22
2022-12-23T16:44:41.785Z,5.57
2022-12-23T16:47:16.991Z,4.00
2022-12-23T16:49:45.819Z,4.03
2022-12-23T16:52:14.633Z,3.70
2022-12-23T16:54:45.812Z,3.25
2022-12-23T16:57:12.241Z,3.53
2022-12-23T16:59:40.985Z,5.20
2022-12-23T17:02:19.175Z,5.25
2022-12-23T17:04:45.705Z,6.00
2022-12-23T17:07:12.678Z,5.47
2022-12-23T17:09:39.178Z,5.93
2022-12-23T17:12:11.912Z,4.70
2022-12-23T17:14:38.748Z,5.85
2022-12-23T17:17:14.533Z,4.88
2022-12-23T17:19:41.841Z,4.93
2022-12-23T17:22:13.132Z,4.60
2022-12-23T17:24:41.867Z,3.60
2022-12-23T17:27:13.585Z,3.80
2022-12-23T17:29:40.204Z,1.60
2022-12-23T17:32:11.796Z,2.58
2022-12-23T17:34:38.413Z,3.20
2022-12-23T17:37:19.728Z,3.28
2022-12-23T17:39:47.101Z,3.28
2022-12-23T17:42:25.422Z,4.40
2022-12-23T17:44:52.871Z,4.35
2022-12-23T17:47:22.078Z,5.45
2022-12-23T17:49:49.432Z,8.68
2022-12-23T17:52:18.575Z,15.43
2022-12-23T17:54:46.467Z,15.75
2022-12-23T17:57:28.365Z,6.72
2022-12-23T17:59:57.337Z,4.38
2022-12-23T18:02:26.552Z,4.53
2022-12-23T18:04:53.509Z,3.55
2022-12-23T18:07:22.535Z,3.30
2022-12-23T18:09:53.012Z,2.47
2022-12-23T18:12:34.738Z,3.58
2022-12-23T18:15:02.370Z,2.47
2022-12-23T18:17:31.440Z,3.55
2022-12-23T18:19:58.004Z,1.73
2022-12-23T18:22:28.234Z,1.48
2022-12-23T18:24:59.064Z,2.90
2022-12-23T18:27:26.114Z,5.72
2022-12-23T18:29:52.616Z,6.07
2022-12-23T18:32:25.125Z,7.95
2022-12-23T18:34:55.460Z,4.40
2022-12-23T18:37:23.950Z,1.80
2022-12-23T18:39:50.615Z,1.40
2022-12-23T18:42:19.214Z,1.60
2022-12-23T18:44:48.505Z,0.75
2022-12-23T18:47:14.918Z,1.02
2022-12-23T18:49:41.849Z,0.60
2022-12-23T18:52:12.695Z,0.85
2022-12-23T18:54:40.046Z,1.60
2022-12-23T18:57:07.269Z,1.25
2022-12-23T18:59:37.439Z,3.35
2022-12-23T19:02:04.616Z,3.90
2022-12-23T19:04:31.114Z,5.43
2022-12-23T19:06:57.941Z,5.57
2022-12-23T19:09:25.112Z,5.07
2022-12-23T19:11:55.297Z,4.60
2022-12-23T19:14:24.289Z,2.45
2022-12-23T19:16:52.272Z,1.50
2022-12-23T19:19:19.084Z,1.13
2022-12-23T19:21:45.505Z,1.85
2022-12-23T19:24:12.071Z,1.38
2022-12-23T19:26:38.686Z,1.65
2022-12-23T19:29:05.229Z,1.15
2022-12-23T19:31:34.061Z,1.73
2022-12-23T19:34:03.410Z,1.38
2022-12-23T19:36:32.501Z,1.80
2022-12-23T19:38:58.968Z,1.33
2022-12-23T19:41:25.749Z,1.90
2022-12-23T19:43:52.329Z,1.52
2022-12-23T19:46:19.270Z,1.30
2022-12-23T19:48:53.278Z,1.80
2022-12-23T19:51:20.247Z,1.50
2022-12-23T19:53:51.240Z,1.20
2022-12-23T19:56:25.407Z,1.67
2022-12-23T19:58:51.960Z,1.20
2022-12-23T20:01:21.605Z,1.63
2022-12-23T20:03:48.945Z,1.13
2022-12-23T20:06:26.198Z,0.88
2022-12-23T20:08:59.719Z,1.40
2022-12-23T20:11:30.979Z,1.35
2022-12-23T20:13:58.614Z,1.05
2022-12-23T20:16:28.467Z,1.15
2022-12-23T20:18:55.632Z,0.73
2022-12-23T20:21:22.602Z,1.17
2022-12-23T20:23:49.851Z,1.10
2022-12-23T20:26:17.856Z,0.80
2022-12-23T20:28:47.868Z,1.55
2022-12-23T20:31:18.029Z,1.50
2022-12-23T20:33:45.662Z,0.93
2022-12-23T20:36:14.181Z,1.95
2022-12-23T20:38:45.437Z,1.85
2022-12-23T20:41:14.762Z,1.47
2022-12-23T20:43:46.023Z,1.05
2022-12-23T20:46:19.944Z,1.30
2022-12-23T20:48:47.140Z,1.10
2022-12-23T20:51:23.952Z,1.65
2022-12-23T20:53:55.030Z,1.17
2022-12-23T20:56:22.335Z,2.30
2022-12-23T20:58:54.627Z,2.55
2022-12-23T21:01:32.890Z,2.53
2022-12-23T21:04:02.256Z,2.25
2022-12-23T21:06:30.595Z,3.47
2022-12-23T21:08:59.490Z,2.25
2022-12-23T21:11:30.659Z,2.38
2022-12-23T21:14:02.617Z,2.65
2022-12-23T21:16:35.816Z,3.25
2022-12-23T21:19:02.945Z,2.65
2022-12-23T21:21:32.494Z,1.63
2022-12-23T21:24:02.650Z,2.13
2022-12-23T21:27:00.862Z,1.70
2022-12-23T21:29:27.486Z,3.08
2022-12-23T21:31:55.266Z,2.25
2022-12-23T21:34:22.181Z,2.08
2022-12-23T21:36:48.902Z,1.67
2022-12-23T21:39:16.149Z,2.08
2022-12-23T21:41:43.057Z,2.15
2022-12-23T21:44:11.709Z,1.10
2022-12-23T21:46:38.280Z,2.67
2022-12-23T21:49:04.748Z,1.92
2022-12-23T21:51:39.572Z,1.67
2022-12-23T21:54:07.194Z,2.25
2022-12-23T21:56:36.519Z,1.67
2022-12-23T21:59:08.574Z,1.20
2022-12-23T22:01:35.779Z,2.20
2022-12-23T22:04:03.179Z,1.83
2022-12-23T22:06:36.905Z,2.30
2022-12-23T22:09:05.391Z,1.63
2022-12-23T22:11:36.392Z,2.70
2022-12-23T22:14:07.511Z,1.80
2022-12-23T22:16:35.114Z,1.95
2022-12-23T22:19:02.599Z,1.65
2022-12-23T22:21:31.956Z,2.15
2022-12-23T22:23:59.105Z,2.65
2022-12-23T22:26:28.339Z,2.10
2022-12-23T22:28:56.392Z,1.85
2022-12-23T22:31:33.892Z,1.75
2022-12-23T22:34:00.452Z,1.40
2022-12-23T22:36:27.432Z,1.85
2022-12-23T22:38:57.116Z,1.20
2022-12-23T22:41:25.445Z,1.90
2022-12-23T22:43:52.055Z,1.48
2022-12-23T22:46:18.759Z,2.08
2022-12-23T22:48:48.360Z,1.70
2022-12-23T22:51:23.631Z,2.00
2022-12-23T22:53:50.374Z,2.20
2022-12-23T22:56:18.714Z,1.73
2022-12-23T22:58:45.228Z,2.38
2022-12-23T23:01:25.477Z,2.13
2022-12-23T23:04:10.696Z,1.70
2022-12-23T23:06:39.762Z,1.50
2022-12-23T23:09:08.173Z,1.52
2022-12-23T23:11:34.934Z,1.88
2022-12-23T23:14:01.795Z,1.55
2022-12-23T23:16:28.460Z,1.70
2022-12-23T23:18:55.745Z,1.90
2022-12-23T23:21:22.440Z,2.33
2022-12-23T23:23:49.701Z,2.03
2022-12-23T23:26:17.195Z,1.70
2022-12-23T23:28:44.599Z,1.75
2022-12-23T23:33:58.123Z,1.63
2022-12-23T23:36:24.755Z,1.80
2022-12-23T23:38:53.497Z,2.25
2022-12-23T23:41:23.400Z,1.55
2022-12-23T23:43:50.628Z,1.52
2022-12-23T23:46:17.244Z,2.13
2022-12-23T23:48:43.685Z,1.48
2022-12-23T23:51:10.354Z,1.13
2022-12-23T23:53:36.780Z,3.67
2022-12-23T23:56:07.527Z,2.67
2022-12-23T23:58:37.737Z,1.33
